Terminal Aerodrome Forecast
Issued by NWS

Home | Current Version | Previous Version | Text Only | Print | Product List | Glossary On
Versions: 1 2 3 4 5 6 7 8 9 10 11 12 13 14 15 16 17 18
196
FTUS43 KMPX 151139
TAFAXN
TAF
KAXN 151139Z 1512/1612 31016G24KT P6SM OVC012
     FM151800 32020G28KT P6SM BKN022
     FM160200 33012KT P6SM FEW015 SCT025
     FM160800 VRB04KT P6SM FEW015 SCT200=

USA.gov is the U.S. government's official web portal to all federal, state and local government web resources and services.